createdAt,value
2022-11-14T00:00:59.324Z,67.90
2022-11-14T00:03:27.676Z,67.70
2022-11-14T00:05:54.821Z,67.40
2022-11-14T00:08:23.706Z,67.20
2022-11-14T00:10:50.911Z,66.90
2022-11-14T00:13:18.139Z,66.70
2022-11-14T00:15:45.176Z,66.50
2022-11-14T00:18:12.385Z,66.50
2022-11-14T00:20:39.425Z,66.60
2022-11-14T00:23:06.363Z,66.50
2022-11-14T00:25:33.242Z,66.60
2022-11-14T00:28:00.229Z,66.80
2022-11-14T00:30:27.650Z,67.00
2022-11-14T00:32:56.890Z,66.90
2022-11-14T00:35:23.906Z,67.00
2022-11-14T00:37:50.793Z,67.20
2022-11-14T00:40:17.732Z,67.50
2022-11-14T00:42:45.129Z,67.80
2022-11-14T00:45:12.176Z,68.00
2022-11-14T00:47:39.081Z,68.00
2022-11-14T00:50:06.434Z,68.10
2022-11-14T00:52:33.308Z,68.10
2022-11-14T00:55:00.349Z,68.20
2022-11-14T00:57:28.666Z,68.00
2022-11-14T00:59:55.966Z,67.80
2022-11-14T01:02:23.137Z,67.80
2022-11-14T01:04:50.138Z,67.50
2022-11-14T01:07:17.326Z,67.40
2022-11-14T01:09:44.269Z,67.20
2022-11-14T01:12:11.268Z,67.40
2022-11-14T01:14:39.821Z,67.60
2022-11-14T01:17:06.933Z,68.00
2022-11-14T01:19:33.798Z,68.30
2022-11-14T01:22:05.955Z,68.40
2022-11-14T01:24:34.043Z,68.50
2022-11-14T01:27:01.080Z,68.50
2022-11-14T01:29:28.009Z,68.40
2022-11-14T01:31:54.973Z,68.30
2022-11-14T01:34:21.854Z,68.50
2022-11-14T01:36:48.753Z,68.90
2022-11-14T01:39:16.057Z,69.40
2022-11-14T01:41:42.960Z,69.50
2022-11-14T01:44:14.288Z,69.80
2022-11-14T01:46:41.313Z,69.80
2022-11-14T01:49:27.073Z,69.60
2022-11-14T01:52:02.932Z,69.70
2022-11-14T01:54:30.578Z,70.10
2022-11-14T01:56:59.296Z,70.70
2022-11-14T01:59:28.107Z,71.00
2022-11-14T02:01:55.239Z,70.60
2022-11-14T02:04:29.265Z,70.20
2022-11-14T02:06:57.885Z,70.00
2022-11-14T02:09:25.140Z,69.60
2022-11-14T02:11:52.194Z,69.70
2022-11-14T02:14:19.251Z,69.50
2022-11-14T02:17:01.108Z,69.30
2022-11-14T02:19:42.077Z,69.70
2022-11-14T02:22:08.955Z,70.30
2022-11-14T02:24:35.797Z,71.10
2022-11-14T02:27:02.986Z,71.60
2022-11-14T02:29:30.540Z,71.90
2022-11-14T02:31:57.433Z,72.30
2022-11-14T02:34:24.227Z,72.80
2022-11-14T02:36:52.312Z,72.80
2022-11-14T02:39:19.258Z,72.40
2022-11-14T02:41:46.088Z,72.00
2022-11-14T02:44:12.969Z,71.50
2022-11-14T02:46:39.801Z,71.10
2022-11-14T02:49:06.631Z,70.60
2022-11-14T02:51:33.503Z,70.60
2022-11-14T02:54:04.028Z,70.60
2022-11-14T02:56:31.677Z,70.20
2022-11-14T02:58:58.885Z,70.60
2022-11-14T03:01:26.040Z,72.00
2022-11-14T03:03:53.346Z,72.80
2022-11-14T03:06:20.521Z,73.10
2022-11-14T03:08:47.763Z,72.60
2022-11-14T03:11:14.845Z,72.00
2022-11-14T03:13:45.733Z,71.60
2022-11-14T03:16:13.222Z,71.20
2022-11-14T03:18:40.130Z,70.70
2022-11-14T03:21:08.084Z,70.50
2022-11-14T03:23:35.163Z,70.70
2022-11-14T03:26:02.595Z,70.30
2022-11-14T03:28:29.797Z,70.10
2022-11-14T03:30:56.917Z,70.30
2022-11-14T03:33:25.975Z,70.50
2022-11-14T03:35:52.960Z,70.50
2022-11-14T03:38:19.998Z,70.40
2022-11-14T03:40:46.883Z,70.40
2022-11-14T03:43:14.033Z,70.50
2022-11-14T03:45:41.113Z,70.60
2022-11-14T03:48:08.129Z,70.80
2022-11-14T03:50:35.037Z,71.10
2022-11-14T03:53:01.881Z,71.20
2022-11-14T03:55:28.805Z,71.20
2022-11-14T03:57:55.761Z,71.20
2022-11-14T04:00:22.672Z,71.00
2022-11-14T04:02:49.674Z,70.80
2022-11-14T04:05:16.560Z,70.70
2022-11-14T04:07:43.624Z,70.70
2022-11-14T04:10:11.070Z,70.90
2022-11-14T04:12:37.986Z,71.00
2022-11-14T04:15:05.073Z,71.10
2022-11-14T04:17:37.065Z,71.10
2022-11-14T04:20:07.339Z,70.90
2022-11-14T04:22:35.055Z,71.30
2022-11-14T04:25:01.966Z,70.60
2022-11-14T04:27:30.325Z,70.60
2022-11-14T04:29:57.525Z,70.60
2022-11-14T04:32:24.464Z,70.90
2022-11-14T04:34:51.469Z,70.90
2022-11-14T04:37:18.399Z,71.00
2022-11-14T04:39:45.212Z,71.00
2022-11-14T04:42:12.145Z,70.70
2022-11-14T04:44:39.041Z,70.50
2022-11-14T04:47:06.034Z,70.40
2022-11-14T04:49:32.866Z,70.20
2022-11-14T04:51:59.788Z,70.00
2022-11-14T04:54:27.679Z,70.10
2022-11-14T04:56:54.649Z,69.80
2022-11-14T04:59:23.737Z,69.90
2022-11-14T05:01:51.061Z,70.20
2022-11-14T05:04:18.127Z,70.20
2022-11-14T05:06:45.157Z,70.80
2022-11-14T05:09:12.252Z,71.40
2022-11-14T05:11:39.223Z,72.00
2022-11-14T05:14:06.103Z,71.70
2022-11-14T05:16:33.043Z,71.40
2022-11-14T05:18:59.997Z,71.40
2022-11-14T05:21:26.888Z,71.60
2022-11-14T05:23:53.929Z,71.70
2022-11-14T05:26:20.849Z,71.60
2022-11-14T05:28:47.791Z,71.30
2022-11-14T05:31:15.454Z,71.30
2022-11-14T05:33:42.409Z,71.40
2022-11-14T05:36:10.061Z,71.30
2022-11-14T05:38:37.504Z,71.40
2022-11-14T05:41:12.515Z,71.00
2022-11-14T05:43:40.413Z,71.90
2022-11-14T05:46:07.867Z,72.80
2022-11-14T05:48:34.938Z,73.20
2022-11-14T05:51:02.587Z,73.20
2022-11-14T05:53:29.935Z,73.10
2022-11-14T05:56:00.322Z,72.60
2022-11-14T05:58:27.789Z,72.40
2022-11-14T06:01:01.741Z,72.10
2022-11-14T06:03:30.952Z,71.60
2022-11-14T06:06:00.533Z,71.30
2022-11-14T06:08:28.500Z,71.30
2022-11-14T06:10:55.724Z,71.30
2022-11-14T06:13:24.448Z,71.40
2022-11-14T06:15:51.378Z,71.50
2022-11-14T06:18:29.626Z,71.70
2022-11-14T06:21:03.694Z,71.90
2022-11-14T06:23:30.725Z,71.90
2022-11-14T06:26:01.708Z,71.80
2022-11-14T06:28:28.865Z,72.10
2022-11-14T06:31:02.958Z,72.90
2022-11-14T06:33:30.414Z,74.10
2022-11-14T06:35:58.210Z,74.20
2022-11-14T06:38:25.509Z,74.40
2022-11-14T06:40:52.514Z,74.40
2022-11-14T06:43:19.412Z,74.30
2022-11-14T06:45:46.385Z,74.30
2022-11-14T06:48:13.332Z,74.00
2022-11-14T06:50:40.293Z,73.70
2022-11-14T06:53:08.287Z,73.50
2022-11-14T06:55:35.204Z,73.10
2022-11-14T06:58:02.076Z,72.70
2022-11-14T07:00:29.271Z,73.20
2022-11-14T07:02:56.271Z,73.60
2022-11-14T07:05:23.323Z,73.30
2022-11-14T07:07:50.248Z,73.40
2022-11-14T07:10:17.422Z,73.30
2022-11-14T07:12:45.274Z,73.10
2022-11-14T07:15:13.577Z,72.70
2022-11-14T07:17:41.275Z,72.40
2022-11-14T07:20:09.240Z,71.90
2022-11-14T07:22:36.166Z,72.20
2022-11-14T07:25:04.497Z,72.20
2022-11-14T07:27:31.420Z,71.70
2022-11-14T07:29:59.566Z,71.70
2022-11-14T07:32:26.510Z,71.80
2022-11-14T07:34:57.870Z,72.00
2022-11-14T07:37:29.018Z,71.60
2022-11-14T07:39:55.874Z,71.80
2022-11-14T07:42:22.935Z,71.80
2022-11-14T07:44:49.900Z,72.10
2022-11-14T07:47:16.869Z,72.30
2022-11-14T07:49:44.559Z,72.20
2022-11-14T07:52:12.269Z,71.70
2022-11-14T07:54:41.797Z,71.50
2022-11-14T07:57:09.399Z,71.60
2022-11-14T07:59:36.496Z,71.50
2022-11-14T08:02:03.562Z,71.60
2022-11-14T08:04:30.519Z,71.30
2022-11-14T08:06:58.698Z,71.20
2022-11-14T08:09:26.590Z,70.80
2022-11-14T08:11:55.161Z,70.70
2022-11-14T08:14:22.466Z,70.20
2022-11-14T08:16:50.370Z,69.70
2022-11-14T08:19:18.759Z,69.70
2022-11-14T08:21:46.558Z,70.20
2022-11-14T08:24:13.604Z,69.70
2022-11-14T08:26:40.892Z,70.10
2022-11-14T08:29:07.978Z,70.40
2022-11-14T08:34:39.837Z,70.10
2022-11-14T08:37:07.687Z,70.10
2022-11-14T08:39:34.638Z,70.00
2022-11-14T08:42:04.886Z,68.60
2022-11-14T08:44:32.327Z,67.30
2022-11-14T08:47:00.700Z,66.70
2022-11-14T08:49:28.048Z,66.80
2022-11-14T08:51:55.655Z,66.60
2022-11-14T08:54:26.233Z,66.00
2022-11-14T08:56:53.171Z,65.60
2022-11-14T08:59:26.746Z,66.10
2022-11-14T09:01:54.066Z,66.60
2022-11-14T09:04:21.132Z,67.40
2022-11-14T09:06:48.300Z,67.60
2022-11-14T09:09:15.488Z,67.00
2022-11-14T09:11:42.784Z,67.00
2022-11-14T09:14:09.792Z,65.90
2022-11-14T09:17:06.250Z,64.90
2022-11-14T09:19:33.694Z,64.20
2022-11-14T09:22:02.075Z,61.60
2022-11-14T09:24:28.943Z,59.60
2022-11-14T09:26:57.154Z,60.00
2022-11-14T09:29:24.286Z,60.30
2022-11-14T09:32:00.676Z,60.20
2022-11-14T09:34:27.605Z,60.90
2022-11-14T09:36:54.440Z,61.60
2022-11-14T09:39:21.470Z,62.30
2022-11-14T09:42:16.825Z,62.70
2022-11-14T09:44:53.547Z,63.60
2022-11-14T09:47:22.100Z,63.90
2022-11-14T09:49:54.011Z,63.50
2022-11-14T09:52:39.623Z,62.80
2022-11-14T09:55:15.066Z,60.50
2022-11-14T09:57:42.865Z,58.60
2022-11-14T10:00:20.062Z,59.40
2022-11-14T10:03:11.768Z,59.70
2022-11-14T10:05:47.216Z,57.70
2022-11-14T10:08:33.586Z,55.90
2022-11-14T10:11:08.271Z,55.20
2022-11-14T10:14:07.254Z,54.60
2022-11-14T10:16:44.235Z,54.30
2022-11-14T10:19:26.573Z,53.10
2022-11-14T10:22:01.523Z,52.90
2022-11-14T10:24:31.231Z,52.30
2022-11-14T10:27:02.349Z,52.10
2022-11-14T10:29:35.447Z,51.50
2022-11-14T10:32:26.954Z,49.90
2022-11-14T10:34:54.107Z,45.90
2022-11-14T10:37:52.953Z,43.40
2022-11-14T10:40:22.982Z,41.50
2022-11-14T10:42:51.123Z,38.70
2022-11-14T10:45:31.944Z,36.70
2022-11-14T10:54:02.496Z,33.80
2022-11-14T10:56:31.219Z,33.20
2022-11-14T10:58:58.186Z,33.10
2022-11-14T11:01:37.271Z,33.50
2022-11-14T11:04:14.353Z,34.30
2022-11-14T11:06:41.619Z,34.40
2022-11-14T11:09:27.997Z,33.10
2022-11-14T11:11:57.580Z,32.40
2022-11-14T11:14:24.535Z,32.20
2022-11-14T11:17:07.478Z,31.70
2022-11-14T11:19:34.490Z,32.10
2022-11-14T11:22:01.424Z,31.60
2022-11-14T11:24:35.200Z,32.20
2022-11-14T11:27:19.226Z,33.60
2022-11-14T11:30:04.500Z,34.50
2022-11-14T11:32:31.950Z,34.00
2022-11-14T11:34:59.471Z,34.30
2022-11-14T11:37:30.792Z,34.50
2022-11-14T11:39:59.236Z,36.00
2022-11-14T11:42:42.877Z,36.60
2022-11-14T11:45:20.675Z,35.80
2022-11-14T11:47:53.420Z,36.30
2022-11-14T11:50:21.301Z,38.40
2022-11-14T11:53:03.392Z,40.50
2022-11-14T11:55:33.690Z,42.80
2022-11-14T11:58:10.172Z,45.00
2022-11-14T12:00:37.051Z,46.10
2022-11-14T12:03:04.221Z,46.70
2022-11-14T12:05:41.904Z,47.60
2022-11-14T12:08:32.093Z,48.20
2022-11-14T12:10:59.029Z,49.30
2022-11-14T12:13:28.959Z,48.70
2022-11-14T12:16:02.144Z,48.40
2022-11-14T12:18:29.153Z,46.80
2022-11-14T12:21:16.543Z,43.00
2022-11-14T12:23:43.517Z,39.90
2022-11-14T12:26:10.367Z,37.80
2022-11-14T12:28:37.279Z,36.30
2022-11-14T12:31:05.528Z,36.10
2022-11-14T12:33:33.600Z,35.70
2022-11-14T12:36:01.404Z,35.10
2022-11-14T12:38:33.970Z,34.30
2022-11-14T12:41:00.934Z,34.30
2022-11-14T12:43:43.404Z,34.70
2022-11-14T12:46:11.750Z,34.30
2022-11-14T12:48:41.932Z,34.10
2022-11-14T12:51:29.893Z,34.00
2022-11-14T12:53:57.214Z,34.90
2022-11-14T12:56:30.509Z,36.40
2022-11-14T12:59:16.105Z,37.90
2022-11-14T13:01:47.310Z,39.50
2022-11-14T13:04:33.088Z,41.30
2022-11-14T13:07:12.386Z,42.60
2022-11-14T13:09:59.705Z,43.60
2022-11-14T13:12:45.338Z,44.40
2022-11-14T13:15:49.100Z,45.20
2022-11-14T13:18:44.879Z,45.90
2022-11-14T13:21:45.611Z,46.30
2022-11-14T13:24:19.238Z,46.80
2022-11-14T13:26:47.634Z,46.80
2022-11-14T13:29:33.350Z,47.30
2022-11-14T13:32:01.350Z,47.70
2022-11-14T13:34:50.131Z,47.90
2022-11-14T13:37:36.195Z,47.90
2022-11-14T13:40:08.314Z,48.50
2022-11-14T13:42:35.434Z,48.80
2022-11-14T13:45:17.638Z,49.10
2022-11-14T13:47:44.551Z,49.20
2022-11-14T13:50:14.529Z,49.40
2022-11-14T13:52:45.480Z,49.50
2022-11-14T13:55:22.610Z,49.60
2022-11-14T13:58:04.948Z,49.80
2022-11-14T14:00:43.313Z,50.30
2022-11-14T14:03:16.448Z,50.70
2022-11-14T14:05:55.636Z,50.60
2022-11-14T14:08:28.696Z,50.70
2022-11-14T14:11:20.981Z,51.00
2022-11-14T14:13:58.548Z,51.40
2022-11-14T14:16:37.697Z,52.30
2022-11-14T14:19:07.883Z,53.00
2022-11-14T14:21:34.857Z,53.40
2022-11-14T14:24:04.929Z,53.70
2022-11-14T14:26:38.838Z,53.80
2022-11-14T14:29:18.201Z,53.80
2022-11-14T14:31:45.214Z,53.40
2022-11-14T14:37:35.129Z,53.20
2022-11-14T14:40:02.834Z,53.10
2022-11-14T14:42:38.919Z,53.30
2022-11-14T14:45:08.100Z,53.60
2022-11-14T14:47:34.989Z,54.10
2022-11-14T14:50:06.157Z,55.40
2022-11-14T14:52:34.292Z,56.40
2022-11-14T14:55:06.366Z,57.50
2022-11-14T14:57:33.236Z,58.40
2022-11-14T15:00:05.271Z,59.00
2022-11-14T15:02:32.248Z,59.80
2022-11-14T15:04:59.602Z,60.40
2022-11-14T15:07:27.478Z,60.70
2022-11-14T15:09:58.220Z,60.60
2022-11-14T15:12:25.261Z,60.30
2022-11-14T15:14:53.139Z,60.20
2022-11-14T15:17:20.503Z,60.30
2022-11-14T15:19:47.951Z,59.80
2022-11-14T15:22:14.786Z,59.90
2022-11-14T15:24:44.842Z,60.00
2022-11-14T15:27:15.715Z,59.80
2022-11-14T15:29:53.052Z,59.80
2022-11-14T15:32:21.184Z,60.20
2022-11-14T15:35:06.901Z,59.80
2022-11-14T15:37:34.110Z,59.40
2022-11-14T15:40:17.324Z,59.20
2022-11-14T15:42:44.173Z,59.00
2022-11-14T15:45:27.690Z,59.00
2022-11-14T15:48:03.655Z,59.00
2022-11-14T15:50:34.395Z,59.40
2022-11-14T15:53:02.368Z,59.30
2022-11-14T15:55:29.430Z,59.30
2022-11-14T15:58:21.377Z,59.40
2022-11-14T16:00:47.704Z,59.70
2022-11-14T16:03:15.985Z,59.80
2022-11-14T16:05:43.326Z,60.00
2022-11-14T16:08:13.415Z,60.20
2022-11-14T16:10:40.255Z,60.40
2022-11-14T16:13:07.167Z,60.60
2022-11-14T16:15:34.082Z,60.70
2022-11-14T16:18:01.078Z,60.80
2022-11-14T16:20:28.767Z,60.70
2022-11-14T16:22:58.506Z,60.60
2022-11-14T16:25:29.907Z,60.90
2022-11-14T16:27:57.417Z,61.20
2022-11-14T16:30:27.797Z,61.10
2022-11-14T16:32:54.802Z,61.10
2022-11-14T16:35:42.708Z,61.30
2022-11-14T16:38:12.267Z,61.60
2022-11-14T16:40:39.125Z,61.50
2022-11-14T16:43:06.126Z,61.60
2022-11-14T16:45:33.384Z,61.70
2022-11-14T16:48:00.329Z,61.80
2022-11-14T16:50:27.384Z,61.90
2022-11-14T16:52:56.929Z,61.70
2022-11-14T16:55:23.995Z,61.70
2022-11-14T16:57:54.212Z,61.80
2022-11-14T17:00:22.306Z,62.00
2022-11-14T17:02:49.308Z,62.30
2022-11-14T17:05:16.919Z,62.60
2022-11-14T17:07:43.928Z,62.80
2022-11-14T17:10:10.898Z,62.80
2022-11-14T17:12:38.071Z,63.20
2022-11-14T17:15:05.632Z,63.50
2022-11-14T17:17:33.191Z,63.50
2022-11-14T17:20:00.706Z,63.50
2022-11-14T17:22:30.663Z,63.60
2022-11-14T17:24:57.999Z,63.70
2022-11-14T17:27:43.699Z,63.70
2022-11-14T17:30:16.530Z,63.80
2022-11-14T17:32:45.048Z,63.80
2022-11-14T17:35:12.336Z,63.80
2022-11-14T17:37:39.603Z,63.80
2022-11-14T17:40:15.177Z,63.50
2022-11-14T17:42:42.681Z,63.90
2022-11-14T17:45:10.005Z,64.80
2022-11-14T17:47:37.109Z,65.30
2022-11-14T17:50:04.884Z,66.10
2022-11-14T17:52:32.050Z,66.50
2022-11-14T17:54:58.942Z,66.50
2022-11-14T17:57:26.152Z,66.20
2022-11-14T17:59:53.419Z,66.30
2022-11-14T18:02:20.377Z,66.20
2022-11-14T18:04:50.131Z,66.10
2022-11-14T18:07:17.699Z,66.30
2022-11-14T18:09:44.881Z,66.40
2022-11-14T18:12:11.990Z,67.40
2022-11-14T18:14:41.081Z,68.00
2022-11-14T18:17:13.173Z,67.90
2022-11-14T18:19:40.562Z,67.60
2022-11-14T18:22:07.990Z,67.50
2022-11-14T18:24:36.553Z,67.50
2022-11-14T18:27:03.536Z,67.60
2022-11-14T18:29:31.326Z,67.40
2022-11-14T18:31:58.232Z,67.10
2022-11-14T18:34:25.143Z,66.70
2022-11-14T18:36:52.002Z,66.90
2022-11-14T18:39:19.099Z,66.60
2022-11-14T18:41:47.875Z,66.70
2022-11-14T18:44:14.814Z,66.80
2022-11-14T18:46:41.748Z,66.80
2022-11-14T18:49:09.160Z,67.20
2022-11-14T18:51:42.368Z,67.40
2022-11-14T18:54:13.291Z,67.40
2022-11-14T18:56:41.626Z,67.30
2022-11-14T18:59:08.575Z,67.40
2022-11-14T19:01:36.971Z,66.90
2022-11-14T19:04:07.777Z,66.60
2022-11-14T19:06:55.397Z,66.50
2022-11-14T19:09:25.355Z,66.70
2022-11-14T19:12:11.326Z,67.10
2022-11-14T19:14:38.318Z,67.10
2022-11-14T19:17:07.535Z,67.10
2022-11-14T19:19:34.704Z,67.30
2022-11-14T19:22:01.624Z,67.40
2022-11-14T19:24:37.087Z,67.60
2022-11-14T19:27:04.393Z,67.80
2022-11-14T19:29:31.457Z,67.80
2022-11-14T19:32:01.471Z,68.00
2022-11-14T19:34:29.041Z,68.20
2022-11-14T19:37:00.778Z,68.30
2022-11-14T19:39:28.387Z,69.10
2022-11-14T19:41:55.399Z,69.20
2022-11-14T19:44:22.361Z,68.80
2022-11-14T19:46:49.279Z,68.50
2022-11-14T19:49:17.342Z,68.40
2022-11-14T19:51:44.410Z,68.30
2022-11-14T19:54:11.400Z,68.00
2022-11-14T19:56:38.552Z,67.50
2022-11-14T19:59:11.077Z,67.60
2022-11-14T20:01:42.360Z,67.80
2022-11-14T20:04:10.117Z,67.30
2022-11-14T20:06:37.188Z,67.50
2022-11-14T20:09:10.152Z,68.10
2022-11-14T20:11:37.161Z,69.00
2022-11-14T20:14:05.734Z,69.70
2022-11-14T20:16:33.697Z,70.30
2022-11-14T20:19:00.892Z,70.20
2022-11-14T20:21:31.683Z,70.10
2022-11-14T20:23:58.586Z,69.80
2022-11-14T20:26:28.785Z,69.30
2022-11-14T20:28:55.905Z,69.50
2022-11-14T20:31:23.724Z,70.40
2022-11-14T20:33:51.817Z,70.30
2022-11-14T20:36:20.853Z,70.40
2022-11-14T20:38:47.876Z,70.10
2022-11-14T20:41:14.914Z,69.70
2022-11-14T20:43:41.942Z,69.50
2022-11-14T20:46:13.576Z,69.40
2022-11-14T20:48:40.838Z,70.50
2022-11-14T20:51:08.829Z,71.40
2022-11-14T20:53:38.687Z,71.10
2022-11-14T20:56:05.768Z,70.90
2022-11-14T20:58:32.864Z,70.90
2022-11-14T21:00:59.927Z,71.50
2022-11-14T21:03:26.848Z,71.70
2022-11-14T21:05:53.796Z,71.30
2022-11-14T21:08:21.807Z,70.90
2022-11-14T21:10:49.860Z,70.60
2022-11-14T21:13:36.018Z,69.80
2022-11-14T21:16:04.228Z,69.60
2022-11-14T21:18:31.406Z,69.10
2022-11-14T21:20:59.985Z,68.90
2022-11-14T21:23:26.904Z,69.30
2022-11-14T21:26:00.633Z,69.40
2022-11-14T21:28:28.727Z,69.40
2022-11-14T21:30:56.104Z,69.30
2022-11-14T21:33:23.074Z,68.90
2022-11-14T21:35:50.011Z,68.90
2022-11-14T21:38:16.903Z,69.10
2022-11-14T21:40:44.281Z,68.80
2022-11-14T21:43:11.335Z,68.70
2022-11-14T21:45:38.200Z,68.70
2022-11-14T21:48:05.192Z,68.50
2022-11-14T21:50:32.990Z,68.50
2022-11-14T21:53:00.084Z,68.60
2022-11-14T21:55:27.276Z,68.80
2022-11-14T21:57:54.710Z,69.40
2022-11-14T22:00:21.784Z,69.90
2022-11-14T22:03:07.470Z,71.00
2022-11-14T22:05:34.431Z,71.90
2022-11-14T22:08:01.575Z,71.80
2022-11-14T22:10:28.972Z,71.40
2022-11-14T22:12:55.873Z,71.60
2022-11-14T22:15:22.816Z,70.60
2022-11-14T22:17:49.788Z,70.50
2022-11-14T22:20:16.764Z,69.90
2022-11-14T22:22:43.817Z,69.60
2022-11-14T22:25:10.984Z,69.60
2022-11-14T22:27:37.921Z,69.70
2022-11-14T22:30:04.991Z,70.30
2022-11-14T22:32:32.230Z,70.60
2022-11-14T22:34:59.197Z,71.30
2022-11-14T22:37:28.995Z,70.60
2022-11-14T22:39:55.953Z,70.60
2022-11-14T22:42:22.827Z,70.30
2022-11-14T22:44:49.812Z,70.20
2022-11-14T22:47:16.686Z,70.00
2022-11-14T22:49:46.575Z,69.70
2022-11-14T22:52:13.576Z,69.50
2022-11-14T22:54:40.568Z,69.30
2022-11-14T22:57:07.411Z,69.20
2022-11-14T22:59:37.029Z,69.30
2022-11-14T23:02:03.908Z,69.30
2022-11-14T23:04:48.350Z,70.10
2022-11-14T23:07:15.352Z,70.30
2022-11-14T23:09:43.799Z,70.70
2022-11-14T23:12:10.707Z,70.80
2022-11-14T23:14:37.559Z,70.60
2022-11-14T23:17:04.484Z,70.20
2022-11-14T23:19:31.614Z,70.00
2022-11-14T23:21:58.885Z,69.90
2022-11-14T23:24:25.851Z,69.90
2022-11-14T23:26:53.634Z,70.20
2022-11-14T23:29:20.552Z,70.40
2022-11-14T23:31:47.522Z,70.50
2022-11-14T23:34:14.441Z,70.70
2022-11-14T23:36:41.374Z,70.70
2022-11-14T23:39:08.401Z,70.50
2022-11-14T23:41:35.290Z,70.40
2022-11-14T23:44:02.382Z,70.50
2022-11-14T23:46:29.288Z,70.40
2022-11-14T23:48:56.234Z,70.80
2022-11-14T23:51:23.124Z,70.70
2022-11-14T23:53:50.046Z,70.80
2022-11-14T23:56:17.085Z,70.70
2022-11-14T23:58:43.958Z,70.50
